Alexandria, OH

3:17 PM EDT on May 29, 2015 (GMT -0400)
Newark Heath | | Change Station
CLOSE
Current Station
Airport
Location: Newark Heath,
Elevation: 883 ft
Nearby Weather Stations

Elev 883 ft 40.03 °N, 82.46 °W | Updated 23 minutes ago

Mostly Cloudy
Mostly Cloudy
81 °F
Feels Like 83 °F
N
12
Wind Variable Wind from SSW
Gusts 22 mph

Today
High -- | Low -- °F
--% Chance of Precip.
Yesterday
High -- | Low -- °F
Precip. -- in
6:04 AM 8:51 PM
Waxing Gibbous, 85% visible
Pressure 30.13 in
Visibility 10.0 miles
Clouds Few 3200 ft
Few 9000 ft
Scattered Clouds 11000 ft
Heat Index 83 °F
Dew Point 66 °F
Humidity 60%
Rainfall 0.00 in
Snow Depth Not available.
UV 8 out of 12
Pollen 8.40 out of 12
Air Quality Not available.
Flu Activity Local Activity
METAR KVTA 291854Z AUTO 21010G19KT 10SM FEW032 FEW090 SCT110 27/19 A3015 RMK AO2 RAB35E45 SLP203 P0000 T02720189

More Conditions Fewer Conditions

Pressure 30.13 in
Visibility 10.0 miles
Clouds Few 3200 ft
Few 9000 ft
Scattered Clouds 11000 ft
Heat Index 83 °F
Dew Point 66 °F
Humidity 60%
Rainfall 0.00 in
Snow Depth Not available.
UV 8 out of 12
Pollen 8.40 out of 12
Air Quality Not available.
Flu Activity Local Activity
METAR KVTA 291854Z AUTO 21010G19KT 10SM FEW032 FEW090 SCT110 27/19 A3015 RMK AO2 RAB35E45 SLP203 P0000 T02720189

More Conditions Fewer Conditions

10-Day Weather Forecast

Almanac

Astronomy

May. 29, 2015 Rise Set
Actual Time
Civil Twilight
Nautical Twilight
Astronomical Twilight
Moon
Length of Visible Light
Length of Day
Tomorrow will be .
, % of the Moon is Illuminated

Today's Extremes

State Highs State Lows

Community

WunderPhotos

Upload Photos

1,825,330 photos uploaded!

WunderBlogs® & News

Nearby

Air Quality

  Air Quality AQ Index Pollutant
Not available.

Snow Depth

Station Depth Elevation

Earthquake Activity

City Distance Mag. Time & Date
Minimum magnitude displayed is 2.5.

Coastal Water Temperatures

Place Temperature

Stations

Nearby Weather Stations

Station Location Temp. Windchill Dew Point Humidity Wind Precip. Elev Updated Type